createdAt,value
2018-06-01T00:02:15.357Z,14.90
2018-06-01T00:04:50.033Z,14.90
2018-06-01T00:07:24.611Z,14.90
2018-06-01T00:09:59.050Z,14.90
2018-06-01T00:12:33.414Z,14.80
2018-06-01T00:15:08.706Z,14.80
2018-06-01T00:17:43.245Z,14.80
2018-06-01T00:20:17.795Z,14.70
2018-06-01T00:22:52.456Z,14.70
2018-06-01T00:25:27.033Z,14.70
2018-06-01T00:28:01.606Z,14.70
2018-06-01T00:30:36.059Z,14.70
2018-06-01T00:33:10.469Z,14.70
2018-06-01T00:35:45.023Z,14.70
2018-06-01T00:38:19.607Z,14.70
2018-06-01T00:40:54.074Z,14.70
2018-06-01T00:43:28.685Z,14.70
2018-06-01T00:46:03.905Z,14.60
2018-06-01T00:48:38.482Z,14.60
2018-06-01T00:51:13.043Z,14.60
2018-06-01T00:53:49.175Z,14.50
2018-06-01T00:56:23.678Z,14.50
2018-06-01T00:58:58.094Z,14.50
2018-06-01T01:01:32.581Z,14.50
2018-06-01T01:04:07.877Z,14.50
2018-06-01T01:06:43.241Z,14.50
2018-06-01T01:09:17.814Z,14.40
2018-06-01T01:11:52.425Z,14.40
2018-06-01T01:14:26.798Z,14.50
2018-06-01T01:17:01.258Z,14.40
2018-06-01T01:19:36.548Z,14.40
2018-06-01T01:22:11.744Z,14.40
2018-06-01T01:24:46.336Z,14.40
2018-06-01T01:27:20.863Z,14.40
2018-06-01T01:29:55.345Z,14.30
2018-06-01T01:32:29.927Z,14.40
2018-06-01T01:35:04.526Z,14.50
2018-06-01T01:37:39.891Z,14.40
2018-06-01T01:40:14.495Z,14.40
2018-06-01T01:42:48.945Z,14.30
2018-06-01T01:45:23.457Z,14.30
2018-06-01T01:47:58.009Z,14.30
2018-06-01T01:50:32.610Z,14.30
2018-06-01T01:53:07.074Z,14.20
2018-06-01T01:55:41.514Z,14.20
2018-06-01T01:58:15.953Z,14.20
2018-06-01T02:00:50.483Z,14.20
2018-06-01T02:03:25.046Z,14.20
2018-06-01T02:05:59.388Z,14.20
2018-06-01T02:08:33.919Z,14.20
2018-06-01T02:11:08.303Z,14.10
2018-06-01T02:13:43.655Z,14.10
2018-06-01T02:16:18.121Z,14.10
2018-06-01T02:18:52.737Z,14.10
2018-06-01T02:21:27.165Z,14.00
2018-06-01T02:24:01.701Z,14.10
2018-06-01T02:26:36.226Z,14.10
2018-06-01T02:29:10.763Z,14.00
2018-06-01T02:31:45.342Z,14.10
2018-06-01T02:34:19.779Z,14.10
2018-06-01T02:36:54.181Z,14.10
2018-06-01T02:39:28.567Z,14.10
2018-06-01T02:42:03.023Z,14.00
2018-06-01T02:44:37.589Z,14.00
2018-06-01T02:47:12.084Z,14.00
2018-06-01T02:49:46.769Z,14.10
2018-06-01T02:52:22.030Z,14.10
2018-06-01T02:54:57.246Z,14.10
2018-06-01T02:57:31.623Z,14.10
2018-06-01T03:00:06.191Z,14.10
2018-06-01T03:02:40.640Z,14.10
2018-06-01T03:05:15.110Z,14.10
2018-06-01T03:07:49.566Z,14.10
2018-06-01T03:10:24.158Z,14.10
2018-06-01T03:12:59.447Z,14.10
2018-06-01T03:15:33.998Z,14.10
2018-06-01T03:18:08.615Z,14.10
2018-06-01T03:20:43.159Z,14.10
2018-06-01T03:23:17.747Z,14.10
2018-06-01T03:25:52.306Z,14.10
2018-06-01T03:28:26.937Z,14.20
2018-06-01T03:31:01.524Z,14.20
2018-06-01T03:33:36.090Z,14.30
2018-06-01T03:36:10.537Z,14.40
2018-06-01T03:38:45.122Z,14.40
2018-06-01T03:41:20.357Z,14.40
2018-06-01T03:43:54.914Z,14.40
2018-06-01T03:46:29.398Z,14.50
2018-06-01T03:49:03.915Z,14.50
2018-06-01T03:51:38.530Z,14.50
2018-06-01T03:54:13.074Z,14.60
2018-06-01T03:56:47.505Z,14.70
2018-06-01T03:59:22.105Z,14.70
2018-06-01T04:01:56.654Z,14.70
2018-06-01T04:04:31.250Z,14.80
2018-06-01T04:07:05.690Z,14.90
2018-06-01T04:09:40.126Z,14.90
2018-06-01T04:12:14.649Z,14.90
2018-06-01T04:14:49.138Z,15.00
2018-06-01T04:17:24.479Z,15.00
2018-06-01T04:19:58.999Z,15.00
2018-06-01T04:22:33.553Z,15.10
2018-06-01T04:25:08.062Z,15.10
2018-06-01T04:27:42.652Z,15.20
2018-06-01T04:30:17.141Z,15.30
2018-06-01T04:32:51.720Z,15.30
2018-06-01T04:35:26.263Z,15.30
2018-06-01T04:38:00.774Z,15.30
2018-06-01T04:40:35.982Z,15.40
2018-06-01T04:43:10.630Z,15.40
2018-06-01T04:45:45.285Z,15.50
2018-06-01T04:48:19.773Z,15.50
2018-06-01T04:50:54.263Z,15.60
2018-06-01T04:53:28.741Z,15.60
2018-06-01T04:56:03.261Z,15.70
2018-06-01T04:58:37.774Z,15.70
2018-06-01T05:01:12.308Z,15.80
2018-06-01T05:03:46.747Z,16.00
2018-06-01T05:06:21.341Z,16.20
2018-06-01T05:08:55.999Z,16.50
2018-06-01T05:11:30.689Z,16.90
2018-06-01T05:14:06.040Z,17.40
2018-06-01T05:16:41.483Z,17.60
2018-06-01T05:19:16.050Z,17.50
2018-06-01T05:21:50.611Z,17.80
2018-06-01T05:24:25.233Z,18.00
2018-06-01T05:26:59.761Z,18.20
2018-06-01T05:29:34.365Z,18.30
2018-06-01T05:32:09.010Z,18.50
2018-06-01T05:34:44.310Z,18.90
2018-06-01T05:37:18.974Z,18.90
2018-06-01T05:39:53.454Z,19.00
2018-06-01T05:42:28.065Z,19.20
2018-06-01T05:45:02.613Z,19.70
2018-06-01T05:47:37.182Z,19.90
2018-06-01T05:50:11.779Z,20.00
2018-06-01T05:52:46.416Z,20.10
2018-06-01T05:55:20.960Z,20.10
2018-06-01T05:57:55.594Z,20.10
2018-06-01T06:00:30.222Z,20.30
2018-06-01T06:03:06.367Z,20.50
2018-06-01T06:05:40.910Z,20.60
2018-06-01T06:08:15.380Z,20.60
2018-06-01T06:10:50.758Z,20.90
2018-06-01T06:13:26.071Z,21.00
2018-06-01T06:16:00.554Z,21.00
2018-06-01T06:18:35.135Z,21.10
2018-06-01T06:21:09.706Z,21.30
2018-06-01T06:23:45.009Z,21.00
2018-06-01T06:26:20.377Z,20.90
2018-06-01T06:28:54.959Z,20.90
2018-06-01T06:31:29.620Z,20.90
2018-06-01T06:34:04.118Z,21.20
2018-06-01T06:36:39.705Z,21.00
2018-06-01T06:39:14.193Z,21.10
2018-06-01T06:41:48.622Z,21.10
2018-06-01T06:44:23.154Z,20.90
2018-06-01T06:46:58.478Z,21.10
2018-06-01T06:49:34.506Z,20.90
2018-06-01T06:52:09.120Z,20.90
2018-06-01T06:54:43.562Z,20.80
2018-06-01T06:57:18.009Z,21.10
2018-06-01T06:59:52.639Z,21.10
2018-06-01T07:02:27.976Z,21.00
2018-06-01T07:05:03.319Z,21.10
2018-06-01T07:07:37.967Z,21.20
2018-06-01T07:10:12.571Z,21.40
2018-06-01T07:12:47.125Z,21.40
2018-06-01T07:15:22.348Z,21.40
2018-06-01T07:17:56.748Z,21.30
2018-06-01T07:20:31.334Z,21.50
2018-06-01T07:23:05.796Z,21.60
2018-06-01T07:25:40.398Z,21.10
2018-06-01T07:28:14.906Z,21.30
2018-06-01T07:30:49.447Z,21.50
2018-06-01T07:33:23.953Z,21.30
2018-06-01T07:35:58.513Z,21.10
2018-06-01T07:38:33.012Z,21.20
2018-06-01T07:41:07.550Z,21.30
2018-06-01T07:43:42.787Z,21.10
2018-06-01T07:46:18.111Z,21.00
2018-06-01T07:48:52.737Z,20.90
2018-06-01T07:51:27.269Z,21.10
2018-06-01T07:54:01.845Z,21.20
2018-06-01T07:56:36.434Z,21.50
2018-06-01T07:59:11.874Z,21.70
2018-06-01T08:01:46.513Z,21.70
2018-06-01T08:04:21.131Z,21.80
2018-06-01T08:06:56.450Z,21.80
2018-06-01T08:09:30.907Z,21.80
2018-06-01T08:12:05.527Z,22.00
2018-06-01T08:14:40.216Z,22.00
2018-06-01T08:17:14.638Z,22.10
2018-06-01T08:19:49.230Z,22.20
2018-06-01T08:22:23.994Z,22.20
2018-06-01T08:24:58.442Z,22.10
2018-06-01T08:27:33.126Z,22.10
2018-06-01T08:30:07.658Z,22.40
2018-06-01T08:32:42.101Z,22.30
2018-06-01T08:35:16.762Z,22.00
2018-06-01T08:37:51.535Z,22.20
2018-06-01T08:40:26.162Z,22.10
2018-06-01T08:43:00.526Z,22.20
2018-06-01T08:45:34.942Z,22.20
2018-06-01T08:48:09.422Z,22.30
2018-06-01T08:50:43.993Z,22.10
2018-06-01T08:53:18.596Z,22.30
2018-06-01T08:55:53.159Z,22.50
2018-06-01T08:58:27.740Z,22.60
2018-06-01T09:01:02.271Z,22.90
2018-06-01T09:03:36.853Z,23.00
2018-06-01T09:06:11.426Z,23.00
2018-06-01T09:08:45.933Z,22.90
2018-06-01T09:11:20.339Z,22.90
2018-06-01T09:13:54.958Z,22.90
2018-06-01T09:16:29.542Z,23.20
2018-06-01T09:19:04.126Z,23.20
2018-06-01T09:21:38.698Z,23.40
2018-06-01T09:24:13.264Z,23.30
2018-06-01T09:26:47.858Z,23.50
2018-06-01T09:29:22.402Z,23.80
2018-06-01T09:31:56.997Z,24.10
2018-06-01T09:34:31.638Z,24.10
2018-06-01T09:37:06.139Z,24.50
2018-06-01T09:39:40.704Z,24.60
2018-06-01T09:42:15.126Z,24.90
2018-06-01T09:44:49.658Z,25.40
2018-06-01T09:47:24.349Z,25.90
2018-06-01T09:49:58.870Z,26.00
2018-06-01T09:52:33.438Z,26.10
2018-06-01T09:55:08.753Z,26.70
2018-06-01T09:57:43.242Z,26.70
2018-06-01T10:00:17.805Z,26.70
2018-06-01T10:02:52.446Z,26.50
2018-06-01T10:05:26.996Z,26.50
2018-06-01T10:08:01.679Z,26.80
2018-06-01T10:10:36.214Z,26.10
2018-06-01T10:13:10.879Z,26.40
2018-06-01T10:15:45.267Z,25.90
2018-06-01T10:18:19.853Z,25.50
2018-06-01T10:20:54.301Z,25.00
2018-06-01T10:23:29.669Z,25.60
2018-06-01T10:26:04.262Z,25.60
2018-06-01T10:28:38.810Z,25.60
2018-06-01T10:31:13.330Z,25.40
2018-06-01T10:33:47.799Z,25.20
2018-06-01T10:36:22.346Z,25.40
2018-06-01T10:38:56.880Z,25.40
2018-06-01T10:41:31.420Z,24.40
2018-06-01T10:44:05.979Z,24.50
2018-06-01T10:46:40.457Z,24.50
2018-06-01T10:49:15.822Z,24.10
2018-06-01T10:51:50.660Z,24.10
2018-06-01T10:54:25.312Z,24.40
2018-06-01T10:56:59.730Z,24.20
2018-06-01T10:59:34.316Z,24.10
2018-06-01T11:02:08.866Z,24.00
2018-06-01T11:04:43.458Z,23.80
2018-06-01T11:07:18.150Z,24.00
2018-06-01T11:09:52.754Z,23.90
2018-06-01T11:12:28.128Z,24.20
2018-06-01T11:15:02.679Z,24.20
2018-06-01T11:17:37.199Z,24.60
2018-06-01T11:20:11.857Z,24.50
2018-06-01T11:22:47.046Z,24.90
2018-06-01T11:25:21.600Z,24.80
2018-06-01T11:27:56.216Z,25.20
2018-06-01T11:30:30.889Z,25.40
2018-06-01T11:33:06.971Z,25.50
2018-06-01T11:35:41.530Z,25.50
2018-06-01T11:38:16.143Z,25.90
2018-06-01T11:40:50.658Z,25.60
2018-06-01T11:43:25.175Z,26.00
2018-06-01T11:46:00.563Z,26.40
2018-06-01T11:48:35.008Z,26.50
2018-06-01T11:51:09.478Z,26.20
2018-06-01T11:53:44.009Z,26.10
2018-06-01T11:56:19.349Z,26.40
2018-06-01T11:58:54.658Z,26.40
2018-06-01T12:01:29.385Z,26.40
2018-06-01T12:04:03.811Z,26.10
2018-06-01T12:06:38.256Z,26.50
2018-06-01T12:09:12.870Z,26.80
2018-06-01T12:11:47.510Z,27.00
2018-06-01T12:14:22.141Z,26.90
2018-06-01T12:16:56.687Z,26.70
2018-06-01T12:19:31.159Z,26.10
2018-06-01T12:22:05.617Z,26.80
2018-06-01T12:24:40.197Z,26.80
2018-06-01T12:27:14.818Z,26.70
2018-06-01T12:29:49.379Z,26.30
2018-06-01T12:32:23.986Z,26.40
2018-06-01T12:34:58.612Z,26.20
2018-06-01T12:37:33.249Z,26.20
2018-06-01T12:40:08.574Z,26.90
2018-06-01T12:42:43.152Z,26.90
2018-06-01T12:45:17.716Z,27.10
2018-06-01T12:47:52.390Z,26.90
2018-06-01T12:50:26.957Z,26.90
2018-06-01T12:53:03.029Z,27.10
2018-06-01T12:55:38.546Z,27.00
2018-06-01T12:58:13.762Z,27.10
2018-06-01T13:00:48.144Z,27.10
2018-06-01T13:03:22.817Z,27.10
2018-06-01T13:05:57.402Z,26.90
2018-06-01T13:08:32.010Z,26.90
2018-06-01T13:11:06.514Z,27.50
2018-06-01T13:13:41.779Z,27.50
2018-06-01T13:16:16.327Z,27.30
2018-06-01T13:18:50.951Z,27.50
2018-06-01T13:21:25.546Z,27.40
2018-06-01T13:24:00.126Z,27.00
2018-06-01T13:26:34.562Z,27.40
2018-06-01T13:29:09.163Z,27.30
2018-06-01T13:31:43.726Z,27.80
2018-06-01T13:34:18.151Z,27.90
2018-06-01T13:36:53.495Z,27.10
2018-06-01T13:39:28.178Z,27.10
2018-06-01T13:42:02.773Z,27.20
2018-06-01T13:44:37.391Z,27.20
2018-06-01T13:47:11.987Z,27.10
2018-06-01T13:49:46.447Z,26.80
2018-06-01T13:52:20.918Z,26.50
2018-06-01T13:54:55.492Z,26.40
2018-06-01T13:57:30.002Z,25.90
2018-06-01T14:00:06.075Z,26.00
2018-06-01T14:02:40.606Z,26.00
2018-06-01T14:05:15.854Z,25.60
2018-06-01T14:07:50.256Z,25.60
2018-06-01T14:10:24.885Z,25.20
2018-06-01T14:12:59.488Z,25.10
2018-06-01T14:15:33.971Z,24.90
2018-06-01T14:18:08.524Z,24.70
2018-06-01T14:20:43.170Z,24.90
2018-06-01T14:23:17.778Z,24.70
2018-06-01T14:25:52.446Z,24.50
2018-06-01T14:28:27.016Z,24.40
2018-06-01T14:31:01.563Z,24.30
2018-06-01T14:33:36.191Z,24.40
2018-06-01T14:36:10.833Z,24.40
2018-06-01T14:38:46.843Z,24.20
2018-06-01T14:41:21.478Z,24.20
2018-06-01T14:43:56.096Z,24.20
2018-06-01T14:46:30.681Z,24.30
2018-06-01T14:49:05.273Z,24.20
2018-06-01T14:51:39.874Z,24.10
2018-06-01T14:54:14.498Z,23.90
2018-06-01T14:56:49.057Z,24.20
2018-06-01T14:59:24.389Z,24.30
2018-06-01T15:01:58.990Z,24.30
2018-06-01T15:04:33.532Z,24.10
2018-06-01T15:07:08.938Z,24.20
2018-06-01T15:09:43.463Z,24.10
2018-06-01T15:12:18.060Z,24.10
2018-06-01T15:14:52.657Z,23.90
2018-06-01T15:17:27.283Z,24.00
2018-06-01T15:20:01.871Z,24.00
2018-06-01T15:22:36.249Z,24.00
2018-06-01T15:25:10.774Z,24.00
2018-06-01T15:27:45.413Z,23.90
2018-06-01T15:30:20.072Z,23.90
2018-06-01T15:32:54.503Z,23.90
2018-06-01T15:35:29.036Z,23.80
2018-06-01T15:38:03.704Z,23.80
2018-06-01T15:40:38.160Z,23.80
2018-06-01T15:43:12.622Z,23.70
2018-06-01T15:45:47.922Z,23.60
2018-06-01T15:48:22.500Z,23.60
2018-06-01T15:50:57.061Z,23.60
2018-06-01T15:53:31.722Z,23.60
2018-06-01T15:56:06.354Z,23.60
2018-06-01T15:58:40.983Z,23.50
2018-06-01T16:01:15.451Z,23.50
2018-06-01T16:03:50.011Z,23.40
2018-06-01T16:06:25.991Z,23.30
2018-06-01T16:09:00.547Z,23.30
2018-06-01T16:11:35.079Z,23.30
2018-06-01T16:14:10.489Z,23.40
2018-06-01T16:16:45.080Z,23.40
2018-06-01T16:19:19.603Z,23.50
2018-06-01T16:21:54.207Z,23.40
2018-06-01T16:24:28.774Z,23.30
2018-06-01T16:27:03.333Z,23.30
2018-06-01T16:29:38.707Z,23.20
2018-06-01T16:32:13.227Z,23.10
2018-06-01T16:34:47.889Z,23.10
2018-06-01T16:37:22.431Z,23.10
2018-06-01T16:39:57.040Z,23.00
2018-06-01T16:42:32.440Z,22.80
2018-06-01T16:45:07.086Z,22.80
2018-06-01T16:47:42.513Z,22.80
2018-06-01T16:50:17.025Z,22.80
2018-06-01T16:52:51.433Z,22.80
2018-06-01T16:55:26.002Z,22.80
2018-06-01T16:58:01.311Z,22.70
2018-06-01T17:00:35.851Z,22.60
2018-06-01T17:03:10.387Z,22.70
2018-06-01T17:05:45.007Z,22.60
2018-06-01T17:08:19.403Z,22.50
2018-06-01T17:10:53.996Z,22.40
2018-06-01T17:13:28.498Z,22.40
2018-06-01T17:16:02.999Z,22.40
2018-06-01T17:18:37.621Z,22.40
2018-06-01T17:21:12.177Z,22.40
2018-06-01T17:23:46.737Z,22.30
2018-06-01T17:26:21.336Z,22.20
2018-06-01T17:28:55.921Z,22.20
2018-06-01T17:31:30.527Z,22.20
2018-06-01T17:34:05.063Z,22.20
2018-06-01T17:36:39.682Z,22.20
2018-06-01T17:39:14.100Z,22.20
2018-06-01T17:41:48.667Z,22.10
2018-06-01T17:44:23.207Z,22.10
2018-06-01T17:46:57.817Z,22.10
2018-06-01T17:49:32.354Z,22.10
2018-06-01T17:52:06.939Z,22.00
2018-06-01T17:54:41.524Z,22.00
2018-06-01T17:57:16.197Z,21.90
2018-06-01T17:59:50.591Z,21.90
2018-06-01T18:02:25.205Z,21.70
2018-06-01T18:04:59.619Z,21.70
2018-06-01T18:07:34.213Z,21.60
2018-06-01T18:10:08.748Z,21.60
2018-06-01T18:12:43.299Z,21.60
2018-06-01T18:15:17.816Z,21.50
2018-06-01T18:17:52.397Z,21.40
2018-06-01T18:20:27.254Z,21.40
2018-06-01T18:23:01.636Z,21.30
2018-06-01T18:25:36.122Z,21.20
2018-06-01T18:28:10.618Z,21.20
2018-06-01T18:30:45.298Z,21.20
2018-06-01T18:33:19.802Z,21.10
2018-06-01T18:35:54.347Z,21.10
2018-06-01T18:38:28.958Z,21.00
2018-06-01T18:41:03.545Z,20.90
2018-06-01T18:43:38.131Z,20.90
2018-06-01T18:46:12.818Z,20.90
2018-06-01T18:48:47.352Z,20.80
2018-06-01T18:51:22.679Z,20.60
2018-06-01T18:53:57.128Z,20.60
2018-06-01T18:56:31.739Z,20.60
2018-06-01T18:59:07.126Z,20.50
2018-06-01T19:01:41.582Z,20.40
2018-06-01T19:04:16.151Z,20.40
2018-06-01T19:06:50.734Z,20.40
2018-06-01T19:09:26.022Z,20.30
2018-06-01T19:12:01.342Z,20.10
2018-06-01T19:14:35.942Z,20.10
2018-06-01T19:17:10.510Z,20.10
2018-06-01T19:19:45.150Z,20.00
2018-06-01T19:22:19.810Z,20.00
2018-06-01T19:24:54.382Z,20.00
2018-06-01T19:27:29.171Z,19.90
2018-06-01T19:30:03.838Z,19.80
2018-06-01T19:32:38.459Z,19.70
2018-06-01T19:35:13.089Z,19.70
2018-06-01T19:37:47.671Z,19.50
2018-06-01T19:40:22.956Z,19.40
2018-06-01T19:42:57.553Z,19.40
2018-06-01T19:45:32.224Z,19.30
2018-06-01T19:48:06.687Z,19.30
2018-06-01T19:50:41.267Z,19.20
2018-06-01T19:53:15.836Z,19.10
2018-06-01T19:55:51.379Z,19.10
2018-06-01T19:58:26.022Z,19.10
2018-06-01T20:01:00.629Z,18.90
2018-06-01T20:03:35.167Z,18.90
2018-06-01T20:06:09.729Z,18.80
2018-06-01T20:08:45.042Z,18.70
2018-06-01T20:11:20.843Z,18.70
2018-06-01T20:13:55.378Z,18.60
2018-06-01T20:16:30.759Z,18.50
2018-06-01T20:19:05.443Z,18.50
2018-06-01T20:21:40.728Z,18.40
2018-06-01T20:24:15.276Z,18.30
2018-06-01T20:26:49.766Z,18.30
2018-06-01T20:29:24.399Z,18.30
2018-06-01T20:31:59.265Z,18.30
2018-06-01T20:34:33.794Z,18.30
2018-06-01T20:37:08.442Z,18.40
2018-06-01T20:39:42.855Z,18.40
2018-06-01T20:42:18.327Z,18.30
2018-06-01T20:44:52.844Z,18.30
2018-06-01T20:47:27.305Z,18.30
2018-06-01T20:50:01.809Z,18.30
2018-06-01T20:52:36.251Z,18.40
2018-06-01T20:55:11.699Z,18.30
2018-06-01T20:57:46.325Z,18.30
2018-06-01T21:00:21.630Z,18.20
2018-06-01T21:02:56.855Z,18.10
2018-06-01T21:05:31.270Z,18.10
2018-06-01T21:08:05.813Z,18.10
2018-06-01T21:10:40.358Z,17.90
2018-06-01T21:13:14.886Z,17.80
2018-06-01T21:15:49.486Z,17.80
2018-06-01T21:18:24.530Z,17.70
2018-06-01T21:20:59.110Z,17.80
2018-06-01T21:23:33.547Z,17.90
2018-06-01T21:26:08.113Z,17.90
2018-06-01T21:28:43.530Z,17.80
2018-06-01T21:31:18.172Z,17.80
2018-06-01T21:33:52.768Z,17.70
2018-06-01T21:36:27.202Z,17.60
2018-06-01T21:39:01.823Z,17.60
2018-06-01T21:41:36.231Z,17.50
2018-06-01T21:44:10.905Z,17.40
2018-06-01T21:46:45.541Z,17.40
2018-06-01T21:49:21.031Z,17.30
2018-06-01T21:51:55.481Z,17.40
2018-06-01T21:54:30.178Z,17.40
2018-06-01T21:57:04.599Z,17.30
2018-06-01T21:59:39.235Z,17.30
2018-06-01T22:02:13.921Z,17.40
2018-06-01T22:04:48.405Z,17.40
2018-06-01T22:07:22.978Z,17.50
2018-06-01T22:09:57.581Z,17.40
2018-06-01T22:12:32.344Z,17.20
2018-06-01T22:15:07.626Z,17.20
2018-06-01T22:17:42.058Z,17.20
2018-06-01T22:20:16.498Z,17.00
2018-06-01T22:22:51.093Z,17.00
2018-06-01T22:25:25.672Z,17.10
2018-06-01T22:28:00.133Z,17.00
2018-06-01T22:30:34.723Z,17.00
2018-06-01T22:33:09.358Z,16.90
2018-06-01T22:35:43.921Z,16.90
2018-06-01T22:38:18.526Z,17.00
2018-06-01T22:40:52.915Z,17.00
2018-06-01T22:43:27.357Z,16.90
2018-06-01T22:46:02.018Z,16.90
2018-06-01T22:48:36.518Z,16.90
2018-06-01T22:51:11.032Z,16.90
2018-06-01T22:53:46.443Z,16.90
2018-06-01T22:56:22.527Z,16.70
2018-06-01T22:58:57.061Z,16.70
2018-06-01T23:01:31.655Z,16.70
2018-06-01T23:04:06.246Z,16.70
2018-06-01T23:06:40.647Z,16.70
2018-06-01T23:09:17.063Z,16.60
2018-06-01T23:11:51.688Z,16.60
2018-06-01T23:14:27.061Z,16.50
2018-06-01T23:17:02.405Z,16.50
2018-06-01T23:19:37.027Z,16.50
2018-06-01T23:22:11.645Z,16.50
2018-06-01T23:24:46.208Z,16.40
2018-06-01T23:27:20.870Z,16.40
2018-06-01T23:29:55.846Z,16.40
2018-06-01T23:32:30.494Z,16.60
2018-06-01T23:35:05.083Z,16.60
2018-06-01T23:37:39.761Z,16.50
2018-06-01T23:40:14.926Z,16.30
2018-06-01T23:42:49.502Z,16.30
2018-06-01T23:45:23.972Z,16.30
2018-06-01T23:47:59.402Z,16.20
2018-06-01T23:50:34.968Z,16.20
2018-06-01T23:53:09.526Z,16.20
2018-06-01T23:55:44.063Z,16.10
2018-06-01T23:58:18.669Z,16.10
